sensor_id;sensor_type;location;lat;lon;timestamp;P1;durP1;ratioP1;P2;durP2;ratioP2
48871;SDS011;36154;51.674;7.824;2022-12-11T00:02:19;1.90;;;1.80;;
48871;SDS011;36154;51.674;7.824;2022-12-11T00:04:44;1.95;;;1.75;;
48871;SDS011;36154;51.674;7.824;2022-12-11T00:07:09;2.15;;;2.05;;
48871;SDS011;36154;51.674;7.824;2022-12-11T00:09:35;2.55;;;1.95;;
48871;SDS011;36154;51.674;7.824;2022-12-11T00:12:00;1.77;;;1.67;;
48871;SDS011;36154;51.674;7.824;2022-12-11T00:14:26;2.00;;;1.90;;
48871;SDS011;36154;51.674;7.824;2022-12-11T00:16:53;2.10;;;2.00;;
48871;SDS011;36154;51.674;7.824;2022-12-11T00:19:18;2.08;;;1.98;;
48871;SDS011;36154;51.674;7.824;2022-12-11T00:21:44;1.90;;;1.80;;
48871;SDS011;36154;51.674;7.824;2022-12-11T00:24:09;1.85;;;1.70;;
48871;SDS011;36154;51.674;7.824;2022-12-11T00:26:34;2.20;;;2.10;;
48871;SDS011;36154;51.674;7.824;2022-12-11T00:29:00;2.03;;;1.92;;
48871;SDS011;36154;51.674;7.824;2022-12-11T00:31:25;1.70;;;1.60;;
48871;SDS011;36154;51.674;7.824;2022-12-11T00:33:50;1.90;;;1.80;;
48871;SDS011;36154;51.674;7.824;2022-12-11T00:36:17;2.03;;;1.92;;
48871;SDS011;36154;51.674;7.824;2022-12-11T00:38:45;1.80;;;1.70;;
48871;SDS011;36154;51.674;7.824;2022-12-11T00:41:14;1.73;;;1.63;;
48871;SDS011;36154;51.674;7.824;2022-12-11T00:43:41;1.95;;;1.85;;
48871;SDS011;36154;51.674;7.824;2022-12-11T00:46:06;1.83;;;1.73;;
48871;SDS011;36154;51.674;7.824;2022-12-11T00:48:32;1.95;;;1.85;;
48871;SDS011;36154;51.674;7.824;2022-12-11T00:50:57;2.28;;;2.17;;
48871;SDS011;36154;51.674;7.824;2022-12-11T00:53:23;1.83;;;1.73;;
48871;SDS011;36154;51.674;7.824;2022-12-11T00:55:48;2.05;;;1.95;;
48871;SDS011;36154;51.674;7.824;2022-12-11T00:58:13;2.10;;;2.00;;
48871;SDS011;36154;51.674;7.824;2022-12-11T01:00:39;2.22;;;2.03;;
48871;SDS011;36154;51.674;7.824;2022-12-11T01:03:06;2.03;;;1.90;;
48871;SDS011;36154;51.674;7.824;2022-12-11T01:05:31;1.98;;;1.88;;
48871;SDS011;36154;51.674;7.824;2022-12-11T01:07:57;2.15;;;1.90;;
48871;SDS011;36154;51.674;7.824;2022-12-11T01:10:22;2.30;;;2.20;;
48871;SDS011;36154;51.674;7.824;2022-12-11T01:12:47;1.73;;;1.63;;
48871;SDS011;36154;51.674;7.824;2022-12-11T01:15:13;1.40;;;1.40;;
48871;SDS011;36154;51.674;7.824;2022-12-11T01:17:39;2.10;;;2.00;;
48871;SDS011;36154;51.674;7.824;2022-12-11T01:20:04;2.30;;;2.20;;
48871;SDS011;36154;51.674;7.824;2022-12-11T01:22:30;2.05;;;1.95;;
48871;SDS011;36154;51.674;7.824;2022-12-11T01:24:55;1.73;;;1.63;;
48871;SDS011;36154;51.674;7.824;2022-12-11T01:27:21;1.80;;;1.70;;
48871;SDS011;36154;51.674;7.824;2022-12-11T01:29:46;2.08;;;1.98;;
48871;SDS011;36154;51.674;7.824;2022-12-11T01:32:12;1.83;;;1.73;;
48871;SDS011;36154;51.674;7.824;2022-12-11T01:34:37;1.90;;;1.80;;
48871;SDS011;36154;51.674;7.824;2022-12-11T01:37:02;2.05;;;1.90;;
48871;SDS011;36154;51.674;7.824;2022-12-11T01:39:28;2.08;;;1.98;;
48871;SDS011;36154;51.674;7.824;2022-12-11T01:41:57;1.75;;;1.65;;
48871;SDS011;36154;51.674;7.824;2022-12-11T01:46:48;1.93;;;1.83;;
48871;SDS011;36154;51.674;7.824;2022-12-11T01:49:14;1.88;;;1.73;;
48871;SDS011;36154;51.674;7.824;2022-12-11T01:51:44;2.13;;;2.03;;
48871;SDS011;36154;51.674;7.824;2022-12-11T01:54:16;2.10;;;2.00;;
48871;SDS011;36154;51.674;7.824;2022-12-11T01:56:43;2.42;;;2.22;;
48871;SDS011;36154;51.674;7.824;2022-12-11T01:59:10;2.03;;;1.83;;
48871;SDS011;36154;51.674;7.824;2022-12-11T02:01:42;1.90;;;1.80;;
48871;SDS011;36154;51.674;7.824;2022-12-11T02:04:11;1.95;;;1.85;;
48871;SDS011;36154;51.674;7.824;2022-12-11T02:06:42;2.08;;;1.98;;
48871;SDS011;36154;51.674;7.824;2022-12-11T02:09:10;2.20;;;2.10;;
48871;SDS011;36154;51.674;7.824;2022-12-11T02:14:23;2.08;;;1.98;;
48871;SDS011;36154;51.674;7.824;2022-12-11T02:17:07;2.10;;;1.90;;
48871;SDS011;36154;51.674;7.824;2022-12-11T02:19:43;1.73;;;1.63;;
48871;SDS011;36154;51.674;7.824;2022-12-11T02:27:46;2.20;;;2.00;;
48871;SDS011;36154;51.674;7.824;2022-12-11T02:30:20;2.20;;;2.10;;
48871;SDS011;36154;51.674;7.824;2022-12-11T02:32:55;1.98;;;1.88;;
48871;SDS011;36154;51.674;7.824;2022-12-11T02:35:24;2.33;;;2.13;;
48871;SDS011;36154;51.674;7.824;2022-12-11T02:37:55;2.20;;;2.00;;
48871;SDS011;36154;51.674;7.824;2022-12-11T02:40:25;2.22;;;2.03;;
48871;SDS011;36154;51.674;7.824;2022-12-11T02:42:54;1.77;;;1.67;;
48871;SDS011;36154;51.674;7.824;2022-12-11T02:45:23;1.70;;;1.60;;
48871;SDS011;36154;51.674;7.824;2022-12-11T02:47:52;2.00;;;1.90;;
48871;SDS011;36154;51.674;7.824;2022-12-11T02:50:19;2.00;;;1.90;;
48871;SDS011;36154;51.674;7.824;2022-12-11T02:52:47;2.17;;;2.08;;
48871;SDS011;36154;51.674;7.824;2022-12-11T02:55:16;2.45;;;2.28;;
48871;SDS011;36154;51.674;7.824;2022-12-11T02:57:46;2.10;;;2.00;;
48871;SDS011;36154;51.674;7.824;2022-12-11T03:00:14;2.03;;;1.88;;
48871;SDS011;36154;51.674;7.824;2022-12-11T03:02:41;2.10;;;2.00;;
48871;SDS011;36154;51.674;7.824;2022-12-11T03:05:07;2.22;;;2.10;;
48871;SDS011;36154;51.674;7.824;2022-12-11T03:07:36;1.70;;;1.60;;
48871;SDS011;36154;51.674;7.824;2022-12-11T03:10:05;2.00;;;1.90;;
48871;SDS011;36154;51.674;7.824;2022-12-11T03:12:35;1.98;;;1.88;;
48871;SDS011;36154;51.674;7.824;2022-12-11T03:15:04;2.10;;;2.00;;
48871;SDS011;36154;51.674;7.824;2022-12-11T03:18:18;1.95;;;1.85;;
48871;SDS011;36154;51.674;7.824;2022-12-11T03:20:31;2.00;;;1.90;;
48871;SDS011;36154;51.674;7.824;2022-12-11T03:28:28;2.00;;;1.90;;
48871;SDS011;36154;51.674;7.824;2022-12-11T03:31:02;2.10;;;2.00;;
48871;SDS011;36154;51.674;7.824;2022-12-11T03:33:33;2.03;;;1.92;;
48871;SDS011;36154;51.674;7.824;2022-12-11T03:36:24;1.70;;;1.60;;
48871;SDS011;36154;51.674;7.824;2022-12-11T03:38:56;1.80;;;1.70;;
48871;SDS011;36154;51.674;7.824;2022-12-11T03:41:25;1.75;;;1.65;;
48871;SDS011;36154;51.674;7.824;2022-12-11T03:43:55;1.73;;;1.63;;
48871;SDS011;36154;51.674;7.824;2022-12-11T03:46:22;1.80;;;1.63;;
48871;SDS011;36154;51.674;7.824;2022-12-11T03:48:54;1.70;;;1.60;;
48871;SDS011;36154;51.674;7.824;2022-12-11T03:51:25;1.85;;;1.75;;
48871;SDS011;36154;51.674;7.824;2022-12-11T03:53:53;1.70;;;1.60;;
48871;SDS011;36154;51.674;7.824;2022-12-11T03:56:19;2.00;;;1.90;;
48871;SDS011;36154;51.674;7.824;2022-12-11T03:58:46;1.98;;;1.88;;
48871;SDS011;36154;51.674;7.824;2022-12-11T04:01:11;2.20;;;2.00;;
48871;SDS011;36154;51.674;7.824;2022-12-11T04:03:36;1.73;;;1.63;;
48871;SDS011;36154;51.674;7.824;2022-12-11T04:06:02;1.95;;;1.85;;
48871;SDS011;36154;51.674;7.824;2022-12-11T04:08:27;2.25;;;2.15;;
48871;SDS011;36154;51.674;7.824;2022-12-11T04:10:53;1.98;;;1.88;;
48871;SDS011;36154;51.674;7.824;2022-12-11T04:13:38;1.98;;;1.88;;
48871;SDS011;36154;51.674;7.824;2022-12-11T04:16:05;2.47;;;2.33;;
48871;SDS011;36154;51.674;7.824;2022-12-11T04:18:31;1.88;;;1.77;;
48871;SDS011;36154;51.674;7.824;2022-12-11T04:21:15;1.70;;;1.60;;
48871;SDS011;36154;51.674;7.824;2022-12-11T04:23:59;2.30;;;2.20;;
48871;SDS011;36154;51.674;7.824;2022-12-11T04:26:42;1.92;;;1.83;;
48871;SDS011;36154;51.674;7.824;2022-12-11T04:29:09;1.70;;;1.60;;
48871;SDS011;36154;51.674;7.824;2022-12-11T04:31:34;2.00;;;1.90;;
48871;SDS011;36154;51.674;7.824;2022-12-11T04:34:00;1.65;;;1.55;;
48871;SDS011;36154;51.674;7.824;2022-12-11T04:36:25;1.63;;;1.52;;
48871;SDS011;36154;51.674;7.824;2022-12-11T04:38:50;1.70;;;1.60;;
48871;SDS011;36154;51.674;7.824;2022-12-11T04:41:16;2.00;;;1.90;;
48871;SDS011;36154;51.674;7.824;2022-12-11T04:43:41;1.83;;;1.73;;
48871;SDS011;36154;51.674;7.824;2022-12-11T04:46:14;1.75;;;1.65;;
48871;SDS011;36154;51.674;7.824;2022-12-11T04:48:45;1.63;;;1.52;;
48871;SDS011;36154;51.674;7.824;2022-12-11T04:51:11;1.38;;;1.27;;
48871;SDS011;36154;51.674;7.824;2022-12-11T04:53:37;1.23;;;1.23;;
48871;SDS011;36154;51.674;7.824;2022-12-11T04:56:06;1.70;;;1.60;;
48871;SDS011;36154;51.674;7.824;2022-12-11T04:58:33;1.55;;;1.45;;
48871;SDS011;36154;51.674;7.824;2022-12-11T05:00:59;1.60;;;1.50;;
48871;SDS011;36154;51.674;7.824;2022-12-11T05:03:25;1.30;;;1.20;;
48871;SDS011;36154;51.674;7.824;2022-12-11T05:05:51;1.73;;;1.63;;
48871;SDS011;36154;51.674;7.824;2022-12-11T05:08:17;1.90;;;1.80;;
48871;SDS011;36154;51.674;7.824;2022-12-11T05:11:00;1.85;;;1.75;;
48871;SDS011;36154;51.674;7.824;2022-12-11T05:13:28;2.08;;;1.90;;
48871;SDS011;36154;51.674;7.824;2022-12-11T05:15:54;1.92;;;1.83;;
48871;SDS011;36154;51.674;7.824;2022-12-11T05:18:19;2.70;;;2.33;;
48871;SDS011;36154;51.674;7.824;2022-12-11T05:20:53;2.05;;;1.95;;
48871;SDS011;36154;51.674;7.824;2022-12-11T05:23:26;3.15;;;2.92;;
48871;SDS011;36154;51.674;7.824;2022-12-11T05:25:52;2.95;;;2.75;;
48871;SDS011;36154;51.674;7.824;2022-12-11T05:28:19;2.65;;;2.47;;
48871;SDS011;36154;51.674;7.824;2022-12-11T05:30:44;2.75;;;2.55;;
48871;SDS011;36154;51.674;7.824;2022-12-11T05:33:10;2.60;;;2.40;;
48871;SDS011;36154;51.674;7.824;2022-12-11T05:35:35;3.22;;;2.92;;
48871;SDS011;36154;51.674;7.824;2022-12-11T05:38:00;3.25;;;3.05;;
48871;SDS011;36154;51.674;7.824;2022-12-11T05:40:26;3.47;;;3.08;;
48871;SDS011;36154;51.674;7.824;2022-12-11T05:42:51;3.72;;;3.42;;
48871;SDS011;36154;51.674;7.824;2022-12-11T05:45:16;3.50;;;3.20;;
48871;SDS011;36154;51.674;7.824;2022-12-11T05:47:41;4.07;;;3.70;;
48871;SDS011;36154;51.674;7.824;2022-12-11T05:50:07;2.92;;;2.72;;
48871;SDS011;36154;51.674;7.824;2022-12-11T05:52:32;3.47;;;3.17;;
48871;SDS011;36154;51.674;7.824;2022-12-11T05:54:58;3.10;;;2.90;;
48871;SDS011;36154;51.674;7.824;2022-12-11T05:57:23;3.15;;;2.90;;
48871;SDS011;36154;51.674;7.824;2022-12-11T05:59:48;3.08;;;2.88;;
48871;SDS011;36154;51.674;7.824;2022-12-11T06:02:14;3.60;;;3.30;;
48871;SDS011;36154;51.674;7.824;2022-12-11T06:04:39;3.55;;;2.92;;
48871;SDS011;36154;51.674;7.824;2022-12-11T06:07:04;3.25;;;3.05;;
48871;SDS011;36154;51.674;7.824;2022-12-11T06:09:29;3.78;;;3.33;;
48871;SDS011;36154;51.674;7.824;2022-12-11T06:11:55;3.85;;;3.55;;
48871;SDS011;36154;51.674;7.824;2022-12-11T06:14:20;5.18;;;3.90;;
48871;SDS011;36154;51.674;7.824;2022-12-11T06:16:45;5.55;;;4.68;;
48871;SDS011;36154;51.674;7.824;2022-12-11T06:19:13;5.78;;;4.95;;
48871;SDS011;36154;51.674;7.824;2022-12-11T06:21:39;5.80;;;5.07;;
48871;SDS011;36154;51.674;7.824;2022-12-11T06:24:09;6.10;;;5.13;;
48871;SDS011;36154;51.674;7.824;2022-12-11T06:26:35;5.43;;;4.03;;
48871;SDS011;36154;51.674;7.824;2022-12-11T06:29:00;4.90;;;4.22;;
48871;SDS011;36154;51.674;7.824;2022-12-11T06:31:26;4.68;;;4.15;;
48871;SDS011;36154;51.674;7.824;2022-12-11T06:33:51;5.00;;;4.45;;
48871;SDS011;36154;51.674;7.824;2022-12-11T06:36:17;5.05;;;4.55;;
48871;SDS011;36154;51.674;7.824;2022-12-11T06:38:44;4.65;;;4.18;;
48871;SDS011;36154;51.674;7.824;2022-12-11T06:41:11;3.78;;;3.47;;
48871;SDS011;36154;51.674;7.824;2022-12-11T06:43:38;4.40;;;4.00;;
48871;SDS011;36154;51.674;7.824;2022-12-11T06:46:05;4.05;;;3.75;;
48871;SDS011;36154;51.674;7.824;2022-12-11T06:48:32;4.18;;;3.67;;
48871;SDS011;36154;51.674;7.824;2022-12-11T06:51:03;3.97;;;3.58;;
48871;SDS011;36154;51.674;7.824;2022-12-11T06:53:30;3.80;;;3.45;;
48871;SDS011;36154;51.674;7.824;2022-12-11T06:55:55;4.25;;;3.78;;
48871;SDS011;36154;51.674;7.824;2022-12-11T06:58:26;3.92;;;3.47;;
48871;SDS011;36154;51.674;7.824;2022-12-11T07:00:51;4.10;;;3.70;;
48871;SDS011;36154;51.674;7.824;2022-12-11T07:03:16;3.83;;;3.53;;
48871;SDS011;36154;51.674;7.824;2022-12-11T07:05:41;5.00;;;4.00;;
48871;SDS011;36154;51.674;7.824;2022-12-11T07:08:07;4.25;;;3.85;;
48871;SDS011;36154;51.674;7.824;2022-12-11T07:10:32;4.50;;;4.10;;
48871;SDS011;36154;51.674;7.824;2022-12-11T07:12:57;4.07;;;3.67;;
48871;SDS011;36154;51.674;7.824;2022-12-11T07:15:22;4.80;;;3.67;;
48871;SDS011;36154;51.674;7.824;2022-12-11T07:17:48;3.65;;;3.35;;
48871;SDS011;36154;51.674;7.824;2022-12-11T07:20:13;3.88;;;3.50;;
48871;SDS011;36154;51.674;7.824;2022-12-11T07:22:41;4.57;;;4.10;;
48871;SDS011;36154;51.674;7.824;2022-12-11T07:25:06;4.00;;;3.70;;
48871;SDS011;36154;51.674;7.824;2022-12-11T07:27:32;4.13;;;3.83;;
48871;SDS011;36154;51.674;7.824;2022-12-11T07:29:57;4.30;;;3.90;;
48871;SDS011;36154;51.674;7.824;2022-12-11T07:32:22;4.35;;;3.75;;
48871;SDS011;36154;51.674;7.824;2022-12-11T07:34:48;4.43;;;4.03;;
48871;SDS011;36154;51.674;7.824;2022-12-11T07:37:13;5.43;;;4.55;;
48871;SDS011;36154;51.674;7.824;2022-12-11T07:39:39;6.13;;;4.63;;
48871;SDS011;36154;51.674;7.824;2022-12-11T07:42:04;5.60;;;4.22;;
48871;SDS011;36154;51.674;7.824;2022-12-11T07:44:29;3.50;;;3.20;;
48871;SDS011;36154;51.674;7.824;2022-12-11T07:46:55;4.47;;;4.07;;
48871;SDS011;36154;51.674;7.824;2022-12-11T07:49:20;4.05;;;3.65;;
48871;SDS011;36154;51.674;7.824;2022-12-11T07:51:45;4.13;;;3.72;;
48871;SDS011;36154;51.674;7.824;2022-12-11T07:54:11;3.28;;;3.00;;
48871;SDS011;36154;51.674;7.824;2022-12-11T07:56:40;4.15;;;3.78;;
48871;SDS011;36154;51.674;7.824;2022-12-11T07:59:10;4.35;;;3.53;;
48871;SDS011;36154;51.674;7.824;2022-12-11T08:01:35;4.82;;;3.97;;
48871;SDS011;36154;51.674;7.824;2022-12-11T08:04:02;4.00;;;3.42;;
48871;SDS011;36154;51.674;7.824;2022-12-11T08:06:30;4.10;;;3.70;;
48871;SDS011;36154;51.674;7.824;2022-12-11T08:08:57;3.25;;;3.03;;
48871;SDS011;36154;51.674;7.824;2022-12-11T08:11:24;3.60;;;3.30;;
48871;SDS011;36154;51.674;7.824;2022-12-11T08:13:50;3.67;;;3.38;;
48871;SDS011;36154;51.674;7.824;2022-12-11T08:16:16;4.05;;;3.58;;
48871;SDS011;36154;51.674;7.824;2022-12-11T08:18:43;3.63;;;3.35;;
48871;SDS011;36154;51.674;7.824;2022-12-11T08:21:11;3.42;;;3.13;;
48871;SDS011;36154;51.674;7.824;2022-12-11T08:23:38;6.53;;;3.75;;
48871;SDS011;36154;51.674;7.824;2022-12-11T08:26:04;5.28;;;3.72;;
48871;SDS011;36154;51.674;7.824;2022-12-11T08:28:30;4.70;;;3.33;;
48871;SDS011;36154;51.674;7.824;2022-12-11T08:30:56;4.53;;;4.05;;
48871;SDS011;36154;51.674;7.824;2022-12-11T08:33:22;7.68;;;5.10;;
48871;SDS011;36154;51.674;7.824;2022-12-11T08:35:47;4.35;;;3.65;;
48871;SDS011;36154;51.674;7.824;2022-12-11T08:38:12;8.63;;;4.85;;
48871;SDS011;36154;51.674;7.824;2022-12-11T08:40:38;7.00;;;5.70;;
48871;SDS011;36154;51.674;7.824;2022-12-11T08:43:03;6.75;;;4.70;;
48871;SDS011;36154;51.674;7.824;2022-12-11T08:45:28;6.13;;;4.82;;
48871;SDS011;36154;51.674;7.824;2022-12-11T08:47:54;8.07;;;5.90;;
48871;SDS011;36154;51.674;7.824;2022-12-11T08:50:19;6.45;;;4.40;;
48871;SDS011;36154;51.674;7.824;2022-12-11T08:52:44;5.03;;;4.35;;
48871;SDS011;36154;51.674;7.824;2022-12-11T08:55:10;4.93;;;4.47;;
48871;SDS011;36154;51.674;7.824;2022-12-11T08:57:35;4.53;;;4.13;;
48871;SDS011;36154;51.674;7.824;2022-12-11T09:00:03;6.43;;;4.00;;
48871;SDS011;36154;51.674;7.824;2022-12-11T09:02:30;5.50;;;4.30;;
48871;SDS011;36154;51.674;7.824;2022-12-11T09:04:55;4.05;;;3.55;;
48871;SDS011;36154;51.674;7.824;2022-12-11T09:07:21;3.10;;;2.83;;
48871;SDS011;36154;51.674;7.824;2022-12-11T09:09:46;4.20;;;3.50;;
48871;SDS011;36154;51.674;7.824;2022-12-11T09:12:11;3.58;;;3.28;;
48871;SDS011;36154;51.674;7.824;2022-12-11T09:14:37;5.25;;;3.60;;
48871;SDS011;36154;51.674;7.824;2022-12-11T09:17:03;5.35;;;4.18;;
48871;SDS011;36154;51.674;7.824;2022-12-11T09:19:29;6.88;;;5.68;;
48871;SDS011;36154;51.674;7.824;2022-12-11T09:21:54;6.78;;;5.43;;
48871;SDS011;36154;51.674;7.824;2022-12-11T09:24:20;6.60;;;5.72;;
48871;SDS011;36154;51.674;7.824;2022-12-11T09:26:45;7.90;;;5.88;;
48871;SDS011;36154;51.674;7.824;2022-12-11T09:29:11;6.45;;;5.80;;
48871;SDS011;36154;51.674;7.824;2022-12-11T09:31:36;6.20;;;5.50;;
48871;SDS011;36154;51.674;7.824;2022-12-11T09:34:06;5.38;;;4.88;;
48871;SDS011;36154;51.674;7.824;2022-12-11T09:36:33;6.20;;;5.35;;
48871;SDS011;36154;51.674;7.824;2022-12-11T09:39:00;6.90;;;5.50;;
48871;SDS011;36154;51.674;7.824;2022-12-11T09:46:37;4.68;;;4.15;;
48871;SDS011;36154;51.674;7.824;2022-12-11T09:49:04;3.63;;;3.33;;
48871;SDS011;36154;51.674;7.824;2022-12-11T09:51:43;3.95;;;3.50;;
48871;SDS011;36154;51.674;7.824;2022-12-11T09:54:15;3.95;;;3.55;;
48871;SDS011;36154;51.674;7.824;2022-12-11T09:56:41;3.70;;;3.40;;
48871;SDS011;36154;51.674;7.824;2022-12-11T09:59:24;3.47;;;3.25;;
48871;SDS011;36154;51.674;7.824;2022-12-11T10:08:08;4.30;;;3.85;;
48871;SDS011;36154;51.674;7.824;2022-12-11T10:11:14;4.38;;;3.88;;
48871;SDS011;36154;51.674;7.824;2022-12-11T10:19:13;3.47;;;2.97;;
48871;SDS011;36154;51.674;7.824;2022-12-11T10:21:43;4.10;;;3.40;;
48871;SDS011;36154;51.674;7.824;2022-12-11T10:24:17;3.35;;;3.00;;
48871;SDS011;36154;51.674;7.824;2022-12-11T10:26:47;3.35;;;3.13;;
48871;SDS011;36154;51.674;7.824;2022-12-11T10:29:18;3.17;;;2.88;;
48871;SDS011;36154;51.674;7.824;2022-12-11T10:31:47;3.30;;;3.00;;
48871;SDS011;36154;51.674;7.824;2022-12-11T10:34:20;3.07;;;2.87;;
48871;SDS011;36154;51.674;7.824;2022-12-11T10:36:59;3.00;;;2.78;;
48871;SDS011;36154;51.674;7.824;2022-12-11T10:39:25;2.80;;;2.60;;
48871;SDS011;36154;51.674;7.824;2022-12-11T10:41:52;3.08;;;2.88;;
48871;SDS011;36154;51.674;7.824;2022-12-11T10:46:46;4.63;;;3.20;;
48871;SDS011;36154;51.674;7.824;2022-12-11T10:49:23;2.90;;;2.70;;
48871;SDS011;36154;51.674;7.824;2022-12-11T10:51:51;3.25;;;2.92;;
48871;SDS011;36154;51.674;7.824;2022-12-11T10:54:35;3.30;;;3.00;;
48871;SDS011;36154;51.674;7.824;2022-12-11T10:57:03;2.90;;;2.70;;
48871;SDS011;36154;51.674;7.824;2022-12-11T10:59:43;2.85;;;2.65;;
48871;SDS011;36154;51.674;7.824;2022-12-11T11:02:30;5.47;;;2.95;;
48871;SDS011;36154;51.674;7.824;2022-12-11T11:04:59;3.33;;;3.05;;
48871;SDS011;36154;51.674;7.824;2022-12-11T11:07:34;3.95;;;3.33;;
48871;SDS011;36154;51.674;7.824;2022-12-11T11:10:04;3.83;;;3.35;;
48871;SDS011;36154;51.674;7.824;2022-12-11T11:12:39;3.20;;;2.90;;
48871;SDS011;36154;51.674;7.824;2022-12-11T11:15:21;5.15;;;3.65;;
48871;SDS011;36154;51.674;7.824;2022-12-11T11:20:18;3.35;;;3.03;;
48871;SDS011;36154;51.674;7.824;2022-12-11T11:22:45;5.63;;;4.13;;
48871;SDS011;36154;51.674;7.824;2022-12-11T11:25:20;3.55;;;3.30;;
48871;SDS011;36154;51.674;7.824;2022-12-11T11:30:28;3.95;;;3.08;;
48871;SDS011;36154;51.674;7.824;2022-12-11T11:32:58;4.88;;;3.22;;
48871;SDS011;36154;51.674;7.824;2022-12-11T11:35:29;4.15;;;3.20;;
48871;SDS011;36154;51.674;7.824;2022-12-11T11:37:57;3.63;;;3.30;;
48871;SDS011;36154;51.674;7.824;2022-12-11T11:40:29;3.20;;;2.88;;
48871;SDS011;36154;51.674;7.824;2022-12-11T11:43:02;3.28;;;2.97;;
48871;SDS011;36154;51.674;7.824;2022-12-11T11:45:37;3.00;;;2.70;;
48871;SDS011;36154;51.674;7.824;2022-12-11T11:50:51;4.18;;;3.42;;
48871;SDS011;36154;51.674;7.824;2022-12-11T11:58:55;3.50;;;3.20;;
48871;SDS011;36154;51.674;7.824;2022-12-11T12:01:26;3.05;;;2.45;;
48871;SDS011;36154;51.674;7.824;2022-12-11T12:03:52;2.92;;;2.67;;
48871;SDS011;36154;51.674;7.824;2022-12-11T12:06:43;2.55;;;2.35;;
48871;SDS011;36154;51.674;7.824;2022-12-11T12:09:19;2.60;;;2.40;;
48871;SDS011;36154;51.674;7.824;2022-12-11T12:17:24;2.60;;;2.40;;
48871;SDS011;36154;51.674;7.824;2022-12-11T12:33:25;2.42;;;2.22;;
48871;SDS011;36154;51.674;7.824;2022-12-11T12:35:54;2.42;;;2.22;;
48871;SDS011;36154;51.674;7.824;2022-12-11T12:38:25;2.45;;;2.22;;
48871;SDS011;36154;51.674;7.824;2022-12-11T12:44:05;2.00;;;1.90;;
48871;SDS011;36154;51.674;7.824;2022-12-11T12:49:48;2.00;;;1.90;;
48871;SDS011;36154;51.674;7.824;2022-12-11T12:52:15;2.30;;;2.10;;
48871;SDS011;36154;51.674;7.824;2022-12-11T12:54:44;2.15;;;2.05;;
48871;SDS011;36154;51.674;7.824;2022-12-11T12:57:31;2.00;;;1.80;;
48871;SDS011;36154;51.674;7.824;2022-12-11T12:59:58;1.65;;;1.55;;
48871;SDS011;36154;51.674;7.824;2022-12-11T13:02:24;1.77;;;1.67;;
48871;SDS011;36154;51.674;7.824;2022-12-11T13:04:57;1.60;;;1.50;;
48871;SDS011;36154;51.674;7.824;2022-12-11T13:07:28;1.58;;;1.42;;
48871;SDS011;36154;51.674;7.824;2022-12-11T13:10:06;1.70;;;1.40;;
48871;SDS011;36154;51.674;7.824;2022-12-11T13:12:47;3.25;;;1.77;;
48871;SDS011;36154;51.674;7.824;2022-12-11T13:17:59;2.30;;;1.83;;
48871;SDS011;36154;51.674;7.824;2022-12-11T13:20:27;1.23;;;1.13;;
48871;SDS011;36154;51.674;7.824;2022-12-11T13:25:30;1.63;;;1.33;;
48871;SDS011;36154;51.674;7.824;2022-12-11T13:28:03;1.50;;;1.40;;
48871;SDS011;36154;51.674;7.824;2022-12-11T13:35:30;2.10;;;1.40;;
48871;SDS011;36154;51.674;7.824;2022-12-11T13:38:02;1.70;;;1.60;;
48871;SDS011;36154;51.674;7.824;2022-12-11T13:40:36;2.75;;;1.65;;
48871;SDS011;36154;51.674;7.824;2022-12-11T13:43:08;1.95;;;1.75;;
48871;SDS011;36154;51.674;7.824;2022-12-11T13:45:55;4.70;;;1.98;;
48871;SDS011;36154;51.674;7.824;2022-12-11T13:50:54;6.22;;;2.80;;
48871;SDS011;36154;51.674;7.824;2022-12-11T13:53:21;6.72;;;2.67;;
48871;SDS011;36154;51.674;7.824;2022-12-11T13:55:57;5.63;;;2.40;;
48871;SDS011;36154;51.674;7.824;2022-12-11T13:58:23;6.40;;;2.47;;
48871;SDS011;36154;51.674;7.824;2022-12-11T14:01:09;4.78;;;2.10;;
48871;SDS011;36154;51.674;7.824;2022-12-11T14:06:30;6.38;;;2.20;;
48871;SDS011;36154;51.674;7.824;2022-12-11T14:08:59;4.20;;;2.42;;
48871;SDS011;36154;51.674;7.824;2022-12-11T14:11:26;6.45;;;2.15;;
48871;SDS011;36154;51.674;7.824;2022-12-11T14:13:58;6.32;;;2.40;;
48871;SDS011;36154;51.674;7.824;2022-12-11T14:16:26;3.85;;;2.00;;
48871;SDS011;36154;51.674;7.824;2022-12-11T14:18:53;5.47;;;1.90;;
48871;SDS011;36154;51.674;7.824;2022-12-11T14:21:22;2.78;;;2.10;;
48871;SDS011;36154;51.674;7.824;2022-12-11T14:23:53;3.55;;;2.08;;
48871;SDS011;36154;51.674;7.824;2022-12-11T14:26:21;4.78;;;1.95;;
48871;SDS011;36154;51.674;7.824;2022-12-11T14:28:49;3.28;;;2.20;;
48871;SDS011;36154;51.674;7.824;2022-12-11T14:31:17;2.28;;;1.73;;
48871;SDS011;36154;51.674;7.824;2022-12-11T14:33:57;6.30;;;2.30;;
48871;SDS011;36154;51.674;7.824;2022-12-11T14:36:37;7.18;;;2.60;;
48871;SDS011;36154;51.674;7.824;2022-12-11T14:39:39;6.53;;;2.72;;
48871;SDS011;36154;51.674;7.824;2022-12-11T14:44:48;5.15;;;2.50;;
48871;SDS011;36154;51.674;7.824;2022-12-11T14:47:27;4.20;;;2.50;;
48871;SDS011;36154;51.674;7.824;2022-12-11T14:52:50;7.03;;;2.97;;
48871;SDS011;36154;51.674;7.824;2022-12-11T14:55:28;3.17;;;2.55;;
48871;SDS011;36154;51.674;7.824;2022-12-11T14:57:57;4.85;;;2.63;;
48871;SDS011;36154;51.674;7.824;2022-12-11T15:00:27;2.85;;;2.38;;
48871;SDS011;36154;51.674;7.824;2022-12-11T15:05:51;3.22;;;2.78;;
48871;SDS011;36154;51.674;7.824;2022-12-11T15:08:19;3.35;;;2.15;;
48871;SDS011;36154;51.674;7.824;2022-12-11T15:13:32;2.90;;;2.35;;
48871;SDS011;36154;51.674;7.824;2022-12-11T15:16:00;3.35;;;2.60;;
48871;SDS011;36154;51.674;7.824;2022-12-11T15:18:31;3.55;;;2.70;;
48871;SDS011;36154;51.674;7.824;2022-12-11T15:21:00;4.88;;;3.15;;
48871;SDS011;36154;51.674;7.824;2022-12-11T15:23:30;4.03;;;3.20;;
48871;SDS011;36154;51.674;7.824;2022-12-11T15:26:11;4.53;;;2.58;;
48871;SDS011;36154;51.674;7.824;2022-12-11T15:28:37;5.03;;;2.28;;
48871;SDS011;36154;51.674;7.824;2022-12-11T15:31:07;2.97;;;2.67;;
48871;SDS011;36154;51.674;7.824;2022-12-11T15:33:49;3.40;;;2.25;;
48871;SDS011;36154;51.674;7.824;2022-12-11T15:36:34;3.40;;;2.70;;
48871;SDS011;36154;51.674;7.824;2022-12-11T15:39:00;3.10;;;2.40;;
48871;SDS011;36154;51.674;7.824;2022-12-11T15:41:27;4.47;;;2.60;;
48871;SDS011;36154;51.674;7.824;2022-12-11T15:43:57;2.38;;;2.17;;
48871;SDS011;36154;51.674;7.824;2022-12-11T15:46:26;2.83;;;2.53;;
48871;SDS011;36154;51.674;7.824;2022-12-11T15:48:51;4.85;;;2.53;;
48871;SDS011;36154;51.674;7.824;2022-12-11T15:51:17;3.95;;;2.58;;
48871;SDS011;36154;51.674;7.824;2022-12-11T15:53:42;2.67;;;2.22;;
48871;SDS011;36154;51.674;7.824;2022-12-11T15:56:12;4.05;;;2.40;;
48871;SDS011;36154;51.674;7.824;2022-12-11T15:58:39;4.75;;;2.80;;
48871;SDS011;36154;51.674;7.824;2022-12-11T16:01:05;4.20;;;2.50;;
48871;SDS011;36154;51.674;7.824;2022-12-11T16:03:30;2.33;;;2.15;;
48871;SDS011;36154;51.674;7.824;2022-12-11T16:05:56;3.92;;;2.10;;
48871;SDS011;36154;51.674;7.824;2022-12-11T16:08:21;3.05;;;2.28;;
48871;SDS011;36154;51.674;7.824;2022-12-11T16:10:48;5.50;;;1.90;;
48871;SDS011;36154;51.674;7.824;2022-12-11T16:13:15;3.17;;;2.20;;
48871;SDS011;36154;51.674;7.824;2022-12-11T16:15:41;3.13;;;2.60;;
48871;SDS011;36154;51.674;7.824;2022-12-11T16:18:09;4.63;;;2.30;;
48871;SDS011;36154;51.674;7.824;2022-12-11T16:20:36;2.92;;;2.53;;
48871;SDS011;36154;51.674;7.824;2022-12-11T16:23:03;4.25;;;2.40;;
48871;SDS011;36154;51.674;7.824;2022-12-11T16:25:29;2.38;;;2.20;;
48871;SDS011;36154;51.674;7.824;2022-12-11T16:27:57;2.60;;;2.40;;
48871;SDS011;36154;51.674;7.824;2022-12-11T16:30:24;2.65;;;2.13;;
48871;SDS011;36154;51.674;7.824;2022-12-11T16:32:50;2.60;;;2.25;;
48871;SDS011;36154;51.674;7.824;2022-12-11T16:35:16;3.17;;;2.45;;
48871;SDS011;36154;51.674;7.824;2022-12-11T16:37:43;2.60;;;2.40;;
48871;SDS011;36154;51.674;7.824;2022-12-11T16:40:09;2.70;;;2.58;;